Minot, ND (58701)

6:05 AM CST on December 11, 2016 (GMT -0600)
Edgeview Estates | | Change Station

Elev 1752 ft 48.21 °N, 101.33 °W | Updated 11 seconds ago

Light Snow
Light Snow
-2.4 °F
Feels Like -2 °F
N
3.0
Wind Variable Wind from West
Gusts 3.0 mph

Today
High -- | Low -- °F
--% Chance of Precip.
Yesterday
High -- | Low -- °F
Precip. -- in
Pressure 30.15 in
Visibility 4.0 miles
Clouds Few 2900 ft
Overcast 5000 ft
Windchill -2 °F
Dew Point -8 °F
Humidity 78%
Rainfall 0.00 in
Snow Depth Not available.
8:26 AM 4:51 PM
Waxing Gibbous, 91% visible
METAR KMOT 111154Z AUTO 03004KT 4SM -SN FEW029 OVC050 M19/M22 A2999 RMK AO2 SLP208 P0000 60000 T11891217 11189 21189 51004
Pressure 30.15 in
Visibility 4.0 miles
Clouds Few 2900 ft
Overcast 5000 ft
Windchill -2 °F
Dew Point -8 °F
Humidity 78%
Rainfall 0.00 in
Snow Depth Not available.
8:26 AM 4:51 PM
Waxing Gibbous, 91% visible
METAR KMOT 111154Z AUTO 03004KT 4SM -SN FEW029 OVC050 M19/M22 A2999 RMK AO2 SLP208 P0000 60000 T11891217 11189 21189 51004

10-Day Weather Forecast

Almanac

Astronomy

Dec. 11, 2016 Rise Set
Actual Time
Civil Twilight
Nautical Twilight
Astronomical Twilight
Moon
Length of Visible Light
Length of Day
Tomorrow will be .
, % of the Moon is Illuminated

Today's Extremes

State Highs State Lows

Community

WunderPhotos

Upload Photos

1,956,710 photos uploaded!

WunderBlog® & News

Nearby

Air Quality

  Air Quality AQ Index Pollutant
Not available.

Snow Depth

Station Depth Elevation

Earthquake Activity

City Distance Mag. Time & Date
Minimum magnitude displayed is 2.5.

Coastal Water Temperatures

Place Temperature

Stations

Nearby Weather Stations

Station Location Temp. Windchill Dew Point Humidity Wind Precip. Elev Updated Type
                   

Watches & Warnings

There are currently no watches in effect.